Time;durP1;ratioP1;P1;durP2;ratioP2;P2;SDS_P1;SDS_P2;PMS_P1;PMS_P2;Temp;Humidity;BMP_temperature;BMP_pressure;BME280_temperature;BME280_humidity;BME280_pressure;Samples;Min_cycle;Max_cycle;Signal;HPM_P1;HPM_P2
2022/05/19 17:04:44;;;;;;;4.93;1.77;;;;;;;16.17;34.98;94033.63;5062451;27;1346307;-74
2022/05/19 17:07:11;;;;;;;2.00;1.05;;;;;;;16.07;34.24;94030.78;5085329;28;20076;-74
2022/05/19 17:09:38;;;;;;;2.47;1.10;;;;;;;16.20;34.02;94047.94;5086607;28;20416;-74
2022/05/19 17:12:06;;;;;;;3.25;1.10;;;;;;;16.11;34.04;94050.84;5085981;28;20044;-74
2022/05/19 17:14:32;;;;;;;4.28;1.70;;;;;;;16.10;33.73;94059.63;5082003;28;20098;-74
2022/05/19 17:16:59;;;;;;;3.90;1.38;;;;;;;16.08;33.78;94058.28;5066711;28;20056;-74
2022/05/19 17:19:26;;;;;;;2.03;0.90;;;;;;;16.03;34.04;94069.31;5065958;28;20053;-74
2022/05/19 17:21:54;;;;;;;3.53;1.55;;;;;;;16.08;35.08;94069.44;5065984;28;20045;-74
2022/05/19 17:24:21;;;;;;;1.95;0.70;;;;;;;15.94;33.86;94062.88;5065880;28;20056;-74
2022/05/19 17:26:49;;;;;;;3.45;1.10;;;;;;;15.70;34.19;94053.19;5065199;28;20044;-74
2022/05/19 17:29:16;;;;;;;1.67;0.82;;;;;;;15.70;34.81;94063.56;5065731;28;20048;-74
2022/05/19 17:31:43;;;;;;;2.75;1.05;;;;;;;15.64;34.83;94069.63;5065701;28;21077;-74
2022/05/19 17:34:10;;;;;;;2.63;1.00;;;;;;;15.57;34.13;94072.31;5065632;28;20045;-74
2022/05/19 17:36:38;;;;;;;2.35;1.10;;;;;;;15.44;34.27;94070.69;5065935;28;20055;-74
2022/05/19 17:39:06;;;;;;;1.67;0.90;;;;;;;15.40;36.02;94069.53;5065390;28;20067;-74
2022/05/19 17:41:33;;;;;;;1.70;0.95;;;;;;;15.41;37.26;94076.28;5065772;28;20056;-74
2022/05/19 17:44:01;;;;;;;2.72;1.33;;;;;;;15.41;38.54;94070.31;5066012;28;20067;-74
2022/05/19 17:46:27;;;;;;;5.57;1.10;;;;;;;15.27;36.72;94073.06;5060413;28;20144;-74
2022/05/19 17:48:54;;;;;;;3.47;1.40;;;;;;;15.18;39.83;94064.03;5064460;28;20045;-73
2022/05/19 17:51:23;;;;;;;5.45;2.03;;;;;;;15.32;40.99;94080.19;5065501;28;20508;-74
2022/05/19 17:53:50;;;;;;;3.47;1.95;;;;;;;15.19;41.50;94074.13;5065509;28;20492;-74
2022/05/19 17:56:19;;;;;;;6.03;3.30;;;;;;;15.21;41.68;94079.91;5065783;28;20056;-74
2022/05/19 17:58:46;;;;;;;5.85;3.08;;;;;;;14.82;40.90;94064.56;5065094;28;20045;-74
2022/05/19 18:01:13;;;;;;;4.57;2.65;;;;;;;14.88;43.11;94081.06;5065470;28;20048;-74
2022/05/19 18:03:40;;;;;;;4.95;2.38;;;;;;;14.74;41.48;94079.56;5065472;28;20056;-74
2022/05/19 18:06:07;;;;;;;2.72;1.67;;;;;;;14.70;42.84;94074.81;5065151;28;20044;-74
2022/05/19 18:08:34;;;;;;;3.72;1.77;;;;;;;14.65;44.61;94081.63;5065218;28;20056;-73
2022/05/19 18:11:01;;;;;;;6.50;1.83;;;;;;;14.63;45.71;94088.81;5065325;28;20048;-73
2022/05/19 18:13:30;;;;;;;3.33;1.65;;;;;;;14.26;43.95;94092.09;5062717;28;20053;-74
2022/05/19 18:18:42;;;;;;;3.47;2.60;;;;;;;14.17;44.90;94089.00;5051904;28;20530;-74
2022/05/19 18:21:10;;;;;;;7.10;3.30;;;;;;;13.95;45.10;94099.66;5051849;28;20085;-74
2022/05/19 18:23:40;;;;;;;10.98;3.97;;;;;;;13.66;45.62;94075.97;5052005;28;20053;-73
2022/05/19 18:26:09;;;;;;;19.02;10.32;;;;;;;13.70;46.56;94102.19;5051622;28;20056;-74
2022/05/19 18:28:39;;;;;;;23.25;17.25;;;;;;;13.61;46.57;94099.06;5051842;28;20455;-74
2022/05/19 18:31:07;;;;;;;15.45;10.88;;;;;;;13.50;46.86;94097.91;5051422;28;20053;-74
2022/05/19 18:33:34;;;;;;;6.40;4.65;;;;;;;13.54;46.67;94106.03;5051800;28;20049;-74
2022/05/19 18:36:01;;;;;;;8.93;4.43;;;;;;;13.52;49.32;94105.44;5051734;28;20044;-73
2022/05/19 18:38:28;;;;;;;5.53;3.33;;;;;;;13.46;48.12;94101.84;5051567;28;20056;-73
2022/05/19 18:46:25;;;;;;;3.47;2.47;;;;;;;13.44;50.13;94104.66;5042664;28;20048;-73
2022/05/19 18:48:52;;;;;;;4.10;2.03;;;;;;;13.56;51.55;94111.78;5050876;28;20045;-73
2022/05/19 18:51:20;;;;;;;3.97;1.80;;;;;;;13.57;52.31;94118.53;5051152;28;20041;-73
2022/05/19 18:53:48;;;;;;;3.63;1.90;;;;;;;13.52;54.12;94111.38;5051001;28;20049;-73
2022/05/19 18:56:16;;;;;;;3.78;1.77;;;;;;;13.53;53.02;94109.59;5051294;28;20076;-73
2022/05/19 18:58:46;;;;;;;2.88;1.50;;;;;;;13.51;54.37;94117.53;5051352;28;20048;-73
2022/05/19 19:01:13;;;;;;;4.40;1.73;;;;;;;13.46;53.42;94119.91;5051235;28;20091;-73
2022/05/19 19:03:40;;;;;;;5.13;1.73;;;;;;;13.48;54.41;94121.31;5028653;28;20053;-73
2022/05/19 19:06:10;;;;;;;3.00;1.85;;;;;;;13.37;54.76;94111.63;5029056;28;20052;-73
2022/05/19 19:08:37;;;;;;;3.50;2.00;;;;;;;13.43;54.03;94134.03;5030539;28;20079;-73
2022/05/19 19:11:07;;;;;;;3.20;2.08;;;;;;;13.36;53.51;94135.84;5030871;28;20049;-73
2022/05/19 19:13:35;;;;;;;3.85;2.33;;;;;;;13.30;54.89;94129.72;5031284;28;20053;-73
2022/05/19 19:16:04;;;;;;;4.05;1.95;;;;;;;13.32;54.80;94140.63;5030796;28;20578;-73
2022/05/19 19:18:31;;;;;;;3.50;2.20;;;;;;;13.28;54.69;94136.84;5030895;28;20045;-73
2022/05/19 19:20:58;;;;;;;4.28;2.38;;;;;;;13.24;55.93;94143.41;5031108;28;20041;-73
2022/05/19 19:23:25;;;;;;;4.18;2.50;;;;;;;13.19;55.65;94149.19;5030987;28;20469;-73
2022/05/19 19:25:52;;;;;;;5.18;2.00;;;;;;;13.14;56.06;94148.22;5030030;28;20497;-73
2022/05/19 19:28:19;;;;;;;4.65;2.38;;;;;;;13.03;56.72;94145.25;5030340;28;20069;-73
2022/05/19 19:30:46;;;;;;;6.72;2.67;;;;;;;12.99;57.27;94156.97;5029871;28;20041;-73
2022/05/19 19:33:14;;;;;;;7.47;3.47;;;;;;;12.90;57.66;94155.56;5030967;28;20459;-73
2022/05/19 19:35:41;;;;;;;9.75;4.30;;;;;;;12.79;58.16;94157.78;5030754;28;20054;-73
2022/05/19 19:38:08;;;;;;;10.77;4.40;;;;;;;12.76;58.58;94157.38;5033786;28;20056;-73
2022/05/19 19:40:36;;;;;;;10.57;5.45;;;;;;;12.68;60.31;94163.53;5050563;28;20064;-73
2022/05/19 19:43:03;;;;;;;12.27;5.55;;;;;;;12.57;60.98;94164.91;5049633;28;20045;-73
2022/05/19 19:45:30;;;;;;;9.93;4.80;;;;;;;12.48;61.13;94168.69;5050218;28;20056;-73
2022/05/19 19:47:57;;;;;;;6.80;3.75;;;;;;;12.38;61.54;94163.91;5050098;28;20049;-72
2022/05/19 19:53:11;;;;;;;7.43;3.60;;;;;;;12.22;62.35;94165.09;5050269;28;20056;-72
2022/05/19 19:55:40;;;;;;;5.47;3.08;;;;;;;12.15;63.01;94167.66;5050068;28;20514;-72
2022/05/19 19:58:07;;;;;;;4.97;3.17;;;;;;;12.06;62.71;94166.22;5050218;28;20523;-72
2022/05/19 20:00:34;;;;;;;7.18;3.38;;;;;;;12.05;64.25;94178.34;5050045;28;20420;-72
2022/05/19 20:03:01;;;;;;;6.32;3.35;;;;;;;11.96;64.42;94175.13;5049967;28;20060;-72
2022/05/19 20:05:31;;;;;;;6.45;3.10;;;;;;;11.86;64.03;94166.97;5050213;28;20053;-72
2022/05/19 20:07:58;;;;;;;8.75;4.22;;;;;;;11.84;64.58;94174.88;5050333;28;20443;-73
2022/05/19 20:10:25;;;;;;;8.77;4.18;;;;;;;11.74;65.22;94177.81;5049367;28;20049;-72
2022/05/19 20:12:51;;;;;;;6.95;3.67;;;;;;;11.66;66.22;94172.81;5050066;28;20061;-72
2022/05/19 20:15:18;;;;;;;6.28;2.42;;;;;;;11.49;66.34;94157.72;5049601;28;20492;-72
2022/05/19 20:17:45;;;;;;;4.55;2.35;;;;;;;11.50;66.91;94169.59;5049624;28;20056;-72
2022/05/19 20:20:17;;;;;;;2.83;1.65;;;;;;;11.50;66.51;94174.72;5049966;28;20071;-72
2022/05/19 20:22:45;;;;;;;3.03;1.92;;;;;;;11.37;67.77;94161.81;5049780;28;20053;-72
2022/05/19 20:25:13;;;;;;;5.07;2.08;;;;;;;11.32;67.05;94169.31;5049834;28;20052;-72
2022/05/19 20:27:42;;;;;;;3.58;2.10;;;;;;;11.27;67.53;94171.66;5049587;28;20056;-72
2022/05/19 20:30:11;;;;;;;5.05;2.40;;;;;;;11.17;67.81;94175.38;5048680;28;20095;-72
2022/05/19 20:32:38;;;;;;;4.88;2.67;;;;;;;11.07;68.46;94167.19;5049470;28;20063;-72
2022/05/19 20:35:07;;;;;;;3.75;2.60;;;;;;;11.05;68.23;94176.88;5049545;28;20053;-72
2022/05/19 20:37:34;;;;;;;4.07;2.30;;;;;;;10.93;68.65;94168.91;5049397;28;20049;-72
2022/05/19 20:40:04;;;;;;;4.35;1.77;;;;;;;10.93;68.75;94174.03;5049440;28;20048;-72
2022/05/19 20:42:31;;;;;;;5.07;2.30;;;;;;;10.83;69.74;94171.78;5049524;28;20473;-72
2022/05/19 20:44:58;;;;;;;3.58;2.20;;;;;;;10.76;68.66;94168.38;5049382;28;20052;-72
2022/05/19 20:47:24;;;;;;;4.57;2.03;;;;;;;10.74;69.75;94178.06;5049060;28;20124;-72
2022/05/19 20:49:51;;;;;;;4.63;2.42;;;;;;;10.60;70.97;94180.50;5048448;28;20060;-72
2022/05/19 20:52:18;;;;;;;2.85;2.00;;;;;;;10.53;70.71;94182.22;5049198;28;20049;-72
2022/05/19 20:54:45;;;;;;;3.45;2.17;;;;;;;10.44;71.87;94176.44;5048794;28;20055;-72
2022/05/19 20:57:17;;;;;;;3.28;1.80;;;;;;;10.42;73.20;94180.94;5049336;28;20052;-72
2022/05/19 20:59:44;;;;;;;2.65;1.60;;;;;;;10.37;72.09;94181.47;5048902;28;20052;-72
2022/05/19 21:02:11;;;;;;;3.85;1.50;;;;;;;10.35;72.81;94191.13;5048966;28;20052;-72
2022/05/19 21:04:37;;;;;;;3.08;1.52;;;;;;;10.23;72.73;94174.63;5048850;28;20064;-72
2022/05/19 21:07:05;;;;;;;3.50;1.95;;;;;;;10.14;73.25;94177.31;5049110;28;20053;-72
2022/05/19 21:09:32;;;;;;;4.53;2.08;;;;;;;10.07;74.03;94191.06;5048257;28;20416;-72
2022/05/19 21:11:59;;;;;;;2.60;1.50;;;;;;;10.03;74.26;94190.63;5049073;28;20099;-73
2022/05/19 21:14:27;;;;;;;3.08;1.58;;;;;;;10.00;75.27;94198.69;5048717;28;20056;-72
2022/05/19 21:16:54;;;;;;;3.28;1.92;;;;;;;9.98;74.79;94198.06;5049166;28;20412;-72
2022/05/19 21:19:23;;;;;;;3.55;1.40;;;;;;;9.91;73.95;94198.03;5048930;28;20053;-72
2022/05/19 21:21:50;;;;;;;2.90;1.50;;;;;;;9.84;75.00;94192.00;5049217;28;20408;-72
2022/05/19 21:27:01;;;;;;;3.78;1.33;;;;;;;9.81;75.02;94193.16;5048913;28;20071;-72
2022/05/19 21:29:29;;;;;;;7.22;1.58;;;;;;;9.76;74.93;94198.03;5048357;28;20053;-72
2022/05/19 21:31:57;;;;;;;4.40;1.73;;;;;;;9.71;74.59;94190.88;5048734;28;20049;-72
2022/05/19 21:34:26;;;;;;;2.72;1.75;;;;;;;9.65;75.27;94198.47;5048833;28;20057;-72
2022/05/19 21:36:53;;;;;;;4.75;1.40;;;;;;;9.46;76.32;94178.34;5049049;28;20483;-72
2022/05/19 21:39:20;;;;;;;2.80;1.45;;;;;;;9.62;76.85;94191.94;5036103;28;20056;-72
2022/05/19 21:41:47;;;;;;;3.35;1.67;;;;;;;9.56;77.99;94184.97;5028723;28;20052;-72
2022/05/19 21:44:14;;;;;;;2.13;1.40;;;;;;;9.50;78.19;94194.19;5029033;28;20053;-72
2022/05/19 21:46:42;;;;;;;4.50;3.03;;;;;;;9.47;78.94;94189.41;5028819;28;20052;-72
2022/05/19 21:49:09;;;;;;;5.68;2.28;;;;;;;9.44;78.49;94189.78;5028649;28;20057;-72
2022/05/19 21:57:05;;;;;;;2.72;1.65;;;;;;;9.17;79.23;94195.31;5031767;28;20060;-74
2022/05/19 21:59:31;;;;;;;3.78;1.75;;;;;;;9.06;80.41;94186.31;5031982;28;20131;-74
2022/05/19 22:02:00;;;;;;;3.58;2.15;;;;;;;9.09;81.98;94192.84;5031610;28;20041;-74
2022/05/19 22:04:27;;;;;;;4.75;3.05;;;;;;;9.00;83.26;94192.13;5031963;28;20191;-74
2022/05/19 22:09:39;;;;;;;3.40;2.23;;;;;;;8.91;83.53;94188.06;5034142;28;20142;-75
2022/05/19 22:12:07;;;;;;;3.75;2.17;;;;;;;8.84;84.23;94187.94;5044894;28;20356;-74
2022/05/19 22:14:34;;;;;;;3.03;2.08;;;;;;;8.77;85.00;94182.75;5042131;28;20045;-74
2022/05/19 22:17:04;;;;;;;3.30;1.73;;;;;;;8.68;86.05;94173.53;5043043;28;20126;-75
2022/05/19 22:19:30;;;;;;;2.53;1.52;;;;;;;8.69;84.90;94191.28;5043194;28;20389;-75
2022/05/19 22:21:57;;;;;;;3.25;1.40;;;;;;;8.61;84.71;94188.78;5051994;28;20045;-75
2022/05/19 22:24:24;;;;;;;2.33;1.60;;;;;;;8.53;86.07;94192.19;5051582;28;20045;-74
2022/05/19 22:26:51;;;;;;;3.55;1.90;;;;;;;8.49;85.56;94192.69;5052108;28;20052;-75
2022/05/19 22:29:18;;;;;;;3.05;2.00;;;;;;;8.45;87.35;94189.69;5051477;28;20049;-75
2022/05/19 22:31:45;;;;;;;3.42;1.90;;;;;;;8.40;87.40;94194.53;5051154;28;20504;-75
2022/05/19 22:34:13;;;;;;;2.72;2.03;;;;;;;8.40;88.35;94195.34;5051557;28;20045;-75
2022/05/19 22:36:40;;;;;;;3.08;1.63;;;;;;;8.35;87.96;94199.34;5051517;28;20049;-75
2022/05/19 22:39:06;;;;;;;3.00;1.80;;;;;;;8.29;89.17;94193.94;5051663;28;20040;-75
2022/05/19 22:41:33;;;;;;;3.00;1.83;;;;;;;8.40;88.91;94194.53;5047861;28;20044;-74
2022/05/19 22:44:00;;;;;;;2.95;1.55;;;;;;;8.39;87.73;94193.72;5050755;28;20550;-74
2022/05/19 22:46:27;;;;;;;3.92;2.33;;;;;;;8.33;86.89;94201.31;5051514;28;20060;-74
2022/05/19 22:48:54;;;;;;;2.65;1.83;;;;;;;8.22;87.70;94207.59;5051204;28;20049;-74
2022/05/19 22:51:23;;;;;;;3.08;1.80;;;;;;;8.09;89.10;94203.03;5045488;28;20084;-74
2022/05/19 22:53:50;;;;;;;3.95;2.20;;;;;;;8.16;89.09;94209.88;5051213;28;20049;-74
2022/05/19 22:56:23;;;;;;;4.82;2.20;;;;;;;8.12;88.74;94207.81;5051621;28;20045;-74
2022/05/19 22:58:50;;;;;;;6.07;2.00;;;;;;;8.08;89.44;94206.56;5051173;28;20495;-74
2022/05/19 23:01:17;;;;;;;4.38;2.20;;;;;;;8.01;89.84;94206.47;5050944;28;20500;-74
2022/05/19 23:03:44;;;;;;;4.55;2.78;;;;;;;7.96;90.83;94206.16;5050915;28;20057;-74
2022/05/19 23:06:10;;;;;;;4.72;2.00;;;;;;;7.97;90.63;94203.41;5050911;28;20045;-74
2022/05/19 23:08:39;;;;;;;4.95;2.40;;;;;;;7.96;89.99;94191.59;5051064;28;20056;-74
2022/05/19 23:11:06;;;;;;;3.65;2.30;;;;;;;8.06;89.71;94200.81;5050115;28;20080;-74
2022/05/19 23:13:32;;;;;;;5.63;2.22;;;;;;;8.06;89.13;94204.16;5050819;28;20052;-74
2022/05/19 23:15:59;;;;;;;4.72;2.45;;;;;;;8.07;87.99;94195.56;5050754;28;20053;-74
2022/05/19 23:18:26;;;;;;;4.25;2.45;;;;;;;8.10;88.18;94202.88;5050649;28;20064;-74
2022/05/19 23:20:53;;;;;;;4.93;2.60;;;;;;;8.13;87.83;94196.63;5051162;28;20044;-75
2022/05/19 23:23:20;;;;;;;4.00;2.70;;;;;;;8.11;87.89;94190.88;5050725;28;20045;-75
2022/05/19 23:25:49;;;;;;;5.57;2.45;;;;;;;8.00;89.31;94199.72;5050755;28;20408;-74
2022/05/19 23:28:17;;;;;;;5.20;2.47;;;;;;;7.92;89.71;94195.44;5051000;28;20054;-75
2022/05/19 23:30:43;;;;;;;4.30;2.45;;;;;;;7.85;90.56;94197.91;5049928;28;20052;-74
2022/05/19 23:33:23;;;;;;;5.53;2.72;;;;;;;7.85;90.61;94194.53;5050571;28;20527;-74
2022/05/19 23:35:52;;;;;;;3.40;2.25;;;;;;;7.81;90.37;94190.72;5050431;28;20049;-74
2022/05/19 23:38:18;;;;;;;8.52;2.83;;;;;;;7.76;90.60;94191.22;5050807;28;20069;-74
2022/05/19 23:40:45;;;;;;;4.53;2.20;;;;;;;7.74;90.65;94186.28;5050269;28;20048;-74
2022/05/19 23:43:13;;;;;;;4.50;2.22;;;;;;;7.69;89.81;94167.28;5050406;28;20056;-74
2022/05/19 23:45:40;;;;;;;4.15;2.38;;;;;;;7.76;89.27;94191.22;5050594;28;20049;-74
2022/05/19 23:48:08;;;;;;;5.53;3.03;;;;;;;7.67;89.41;94185.34;5050106;28;20049;-74
2022/05/19 23:50:35;;;;;;;4.38;2.45;;;;;;;7.43;89.26;94156.38;5049479;28;20488;-74
2022/05/19 23:53:02;;;;;;;6.47;2.90;;;;;;;7.53;89.37;94179.19;5050397;28;20056;-74
2022/05/19 23:55:29;;;;;;;5.55;2.90;;;;;;;7.46;90.34;94178.25;5050288;28;20069;-74
2022/05/19 23:57:55;;;;;;;5.25;2.42;;;;;;;7.40;90.91;94178.94;5050373;28;20063;-74
